Time;durP1;ratioP1;P1;durP2;ratioP2;P2;SDS_P1;SDS_P2;PMS_P1;PMS_P2;Temp;Humidity;BMP_temperature;BMP_pressure;BME280_temperature;BME280_humidity;BME280_pressure;Samples;Min_cycle;Max_cycle;Signal;HPM_P1;HPM_P2
2023/03/08 00:04:42;;;;;;;15.88;7.35;;;;;;;5.00;75.00;98972.88;20806545;28;20111;-68
2023/03/08 00:14:43;;;;;;;16.38;7.70;;;;;;;4.91;76.45;98985.97;20804257;28;20482;-68
2023/03/08 00:24:44;;;;;;;16.10;7.88;;;;;;;4.94;76.36;98988.53;20806022;28;20644;-69
2023/03/08 00:34:46;;;;;;;18.00;8.45;;;;;;;4.95;74.66;98953.94;20803291;28;20050;-68
2023/03/08 00:44:47;;;;;;;19.20;8.05;;;;;;;4.76;74.50;98943.84;20803256;28;20069;-69
2023/03/08 00:54:48;;;;;;;20.45;8.50;;;;;;;4.50;75.63;98941.63;20801367;28;20421;-68
2023/03/08 01:04:50;;;;;;;18.85;8.85;;;;;;;4.32;75.97;98932.41;20799578;28;20088;-69
2023/03/08 01:14:51;;;;;;;19.08;8.52;;;;;;;4.10;78.07;98930.97;20800758;28;20049;-68
2023/03/08 01:24:52;;;;;;;17.10;8.77;;;;;;;3.91;79.59;98901.00;20799107;28;20459;-68
2023/03/08 01:34:54;;;;;;;17.83;9.00;;;;;;;3.75;80.08;98895.19;20795169;28;20149;-68
2023/03/08 01:44:55;;;;;;;22.33;9.68;;;;;;;3.68;81.52;98885.75;20797219;28;20058;-68
2023/03/08 01:54:57;;;;;;;20.55;10.07;;;;;;;3.58;81.77;98866.91;20796653;28;20053;-68
2023/03/08 02:04:58;;;;;;;21.00;9.63;;;;;;;3.49;83.39;98856.66;20797629;28;20065;-68
2023/03/08 02:14:59;;;;;;;23.85;10.43;;;;;;;3.60;83.40;98847.91;20787073;28;20515;-68
2023/03/08 02:25:00;;;;;;;21.85;10.52;;;;;;;3.63;83.52;98831.47;20793044;28;20064;-69
2023/03/08 02:35:02;;;;;;;24.58;10.98;;;;;;;3.61;84.44;98820.28;20791501;28;20050;-68
2023/03/08 02:45:03;;;;;;;20.67;9.93;;;;;;;3.71;83.85;98798.59;20791613;28;20092;-68
2023/03/08 02:55:04;;;;;;;22.55;10.35;;;;;;;3.76;83.59;98788.16;20792645;28;20638;-68
2023/03/08 03:05:06;;;;;;;21.05;10.52;;;;;;;3.72;83.50;98771.81;20794026;28;20049;-68
2023/03/08 03:15:07;;;;;;;23.08;10.05;;;;;;;3.69;84.08;98764.13;20789458;28;20049;-68
2023/03/08 03:25:08;;;;;;;21.52;10.30;;;;;;;3.46;85.90;98737.72;20797075;28;20057;-68
2023/03/08 03:35:10;;;;;;;20.52;10.02;;;;;;;3.56;84.62;98737.53;20804707;28;20689;-68
2023/03/08 03:45:11;;;;;;;22.33;9.98;;;;;;;3.74;83.78;98702.78;20804181;28;20045;-68
2023/03/08 03:55:12;;;;;;;20.13;9.60;;;;;;;3.83;83.75;98694.88;20808217;28;20115;-69
2023/03/08 04:05:14;;;;;;;21.70;9.82;;;;;;;3.83;82.82;98723.34;20801087;28;20510;-69
2023/03/08 04:15:15;;;;;;;20.17;10.32;;;;;;;3.87;83.79;98706.00;20800595;28;20470;-68
2023/03/08 04:25:16;;;;;;;20.48;10.02;;;;;;;3.84;83.17;98700.91;20800443;28;20054;-68
2023/03/08 04:35:18;;;;;;;21.00;10.32;;;;;;;3.96;82.32;98695.50;20798336;28;20096;-68
2023/03/08 04:45:19;;;;;;;22.83;10.23;;;;;;;3.98;82.31;98672.19;20804005;28;20421;-69
2023/03/08 04:55:20;;;;;;;24.13;10.30;;;;;;;3.96;82.12;98676.53;20797125;28;20091;-68
2023/03/08 05:05:21;;;;;;;25.00;10.60;;;;;;;4.01;81.88;98666.94;20796756;28;20468;-69
2023/03/08 05:15:22;;;;;;;21.40;9.10;;;;;;;4.01;81.71;98643.66;20795095;28;20049;-69
2023/03/08 05:25:24;;;;;;;20.98;9.63;;;;;;;4.06;81.41;98652.19;20797302;28;20107;-68
2023/03/08 05:35:27;;;;;;;20.00;9.75;;;;;;;4.06;81.59;98647.00;20817369;23;20443;-80
2023/03/08 05:45:29;;;;;;;21.07;9.97;;;;;;;4.15;81.55;98622.69;20828263;23;20042;-69
2023/03/08 06:06:14;;;;;;;24.33;10.95;;;;;;;4.16;82.97;98594.16;20806431;28;20089;-83
2023/03/08 06:16:16;;;;;;;22.10;10.82;;;;;;;4.26;82.40;98581.88;20809646;28;20049;-82
2023/03/08 06:26:17;;;;;;;24.10;10.85;;;;;;;4.38;82.48;98577.31;20803258;28;20119;-82
2023/03/08 06:36:18;;;;;;;20.17;10.27;;;;;;;4.45;88.49;98556.47;20804261;28;20509;-82
2023/03/08 06:46:19;;;;;;;22.35;10.35;;;;;;;4.33;100.00;98545.47;20845324;28;20057;-79
2023/03/08 06:56:21;;;;;;;23.92;11.63;;;;;;;4.07;100.00;98553.78;20804371;28;20045;-79
2023/03/08 07:06:22;;;;;;;26.80;11.80;;;;;;;3.96;100.00;98544.47;20820091;28;20046;-84
2023/03/08 07:16:24;;;;;;;24.58;11.65;;;;;;;3.93;100.00;98516.94;20826677;28;20479;-83
2023/03/08 07:26:25;;;;;;;25.25;11.23;;;;;;;3.89;100.00;98511.84;20834552;28;20037;-90
2023/03/08 07:36:26;;;;;;;27.13;11.90;;;;;;;3.82;100.00;98493.81;20934945;28;20037;-84
2023/03/08 07:46:27;;;;;;;31.88;12.82;;;;;;;3.73;100.00;98475.88;20898587;28;20104;-81
2023/03/08 07:56:29;;;;;;;25.38;12.45;;;;;;;3.72;100.00;98445.69;20826932;28;20414;-80
2023/03/08 08:06:30;;;;;;;26.58;11.63;;;;;;;3.73;100.00;98415.50;20815565;28;20072;-80
2023/03/08 08:16:31;;;;;;;24.17;12.98;;;;;;;3.77;100.00;98411.97;20816154;28;20479;-80
2023/03/08 08:26:33;;;;;;;30.70;15.15;;;;;;;3.84;100.00;98398.03;20810473;28;20147;-80
2023/03/08 08:36:34;;;;;;;34.13;13.02;;;;;;;4.05;100.00;98370.81;20808238;28;20889;-81
2023/03/08 08:46:36;;;;;;;25.42;11.75;;;;;;;4.08;100.00;98342.28;20825606;28;20106;-83
2023/03/08 08:56:41;;;;;;;22.20;11.32;;;;;;;4.07;100.00;98335.38;20821512;28;20053;-82
2023/03/08 09:06:43;;;;;;;25.35;11.30;;;;;;;3.95;100.00;98325.28;20822455;28;20053;-81
2023/03/08 09:16:44;;;;;;;27.52;12.25;;;;;;;3.57;100.00;98303.69;20813188;28;20057;-81
2023/03/08 09:26:46;;;;;;;26.73;12.02;;;;;;;3.73;100.00;98294.69;20808847;28;20152;-83
2023/03/08 09:36:47;;;;;;;23.98;11.27;;;;;;;3.69;100.00;98256.84;20812164;28;20140;-83
2023/03/08 09:46:48;;;;;;;24.63;11.38;;;;;;;3.87;100.00;98247.78;20826057;28;20099;-81
2023/03/08 09:56:49;;;;;;;24.75;13.35;;;;;;;3.86;100.00;98238.34;20822462;28;20399;-82
2023/03/08 10:06:51;;;;;;;27.15;14.57;;;;;;;4.06;100.00;98214.56;20814874;28;20053;-82
2023/03/08 10:16:52;;;;;;;28.52;14.00;;;;;;;4.30;100.00;98200.13;20814226;28;20054;-83
2023/03/08 10:26:54;;;;;;;25.38;13.45;;;;;;;4.23;100.00;98207.22;20806793;28;20161;-82
2023/03/08 10:36:55;;;;;;;24.92;14.35;;;;;;;4.69;100.00;98174.88;20820657;28;20053;-84
2023/03/08 10:46:57;;;;;;;26.67;13.07;;;;;;;4.84;100.00;98161.53;20811231;28;20294;-83
2023/03/08 10:56:58;;;;;;;38.55;18.70;;;;;;;5.07;100.00;98145.25;20839781;28;20057;-84
2023/03/08 11:06:59;;;;;;;50.50;21.58;;;;;;;5.65;100.00;98147.81;20809921;23;20112;-68
2023/03/08 11:17:00;;;;;;;21.55;11.45;;;;;;;6.16;100.00;98128.84;20794972;28;20133;-68
2023/03/08 11:27:02;;;;;;;18.70;10.15;;;;;;;6.83;100.00;98120.41;20794965;28;20054;-70
2023/03/08 11:37:03;;;;;;;17.58;9.00;;;;;;;7.20;100.00;98110.28;20787761;28;20050;-70
2023/03/08 11:47:04;;;;;;;15.93;7.63;;;;;;;7.55;100.00;98095.03;20790249;28;20128;-70
2023/03/08 11:57:05;;;;;;;12.68;7.03;;;;;;;7.78;100.00;98101.06;20798030;28;20084;-70
2023/03/08 12:07:07;;;;;;;14.57;7.35;;;;;;;7.68;100.00;98101.44;20788470;28;20049;-70
2023/03/08 12:17:08;;;;;;;15.98;7.30;;;;;;;7.80;100.00;98107.88;20789066;28;20068;-70
2023/03/08 12:27:10;;;;;;;148.18;18.45;;;;;;;8.08;100.00;98104.13;20789286;28;20063;-70
2023/03/08 12:37:11;;;;;;;13.90;6.20;;;;;;;8.43;100.00;98097.41;20794898;28;20049;-70
2023/03/08 12:47:12;;;;;;;10.57;5.05;;;;;;;8.72;100.00;98067.47;20797693;28;20483;-72
2023/03/08 12:57:13;;;;;;;6.22;2.85;;;;;;;9.39;100.00;98068.63;20785476;28;20053;-72
2023/03/08 13:07:15;;;;;;;3.03;1.20;;;;;;;10.04;100.00;98061.94;20785066;28;20057;-72
2023/03/08 13:27:54;;;;;;;1.70;0.82;;;;;;;10.09;100.00;98064.31;20809487;28;20132;-78
2023/03/08 13:37:55;;;;;;;6.70;2.70;;;;;;;10.19;100.00;98053.28;20799811;28;20073;-78
2023/03/08 13:47:57;;;;;;;6.88;3.67;;;;;;;10.13;100.00;98056.22;20800430;28;20057;-78
2023/03/08 13:57:58;;;;;;;6.78;3.30;;;;;;;10.10;100.00;98059.00;20805043;28;20115;-78
2023/03/08 14:29:10;;;;;;;6.03;2.20;;;;;;;10.13;100.00;98043.16;20794214;28;20049;-78
2023/03/08 14:39:11;;;;;;;5.47;2.30;;;;;;;10.50;100.00;98030.81;20793830;28;20056;-78
2023/03/08 14:49:15;;;;;;;4.83;1.87;;;;;;;10.71;100.00;98013.09;20804140;28;20049;-79
2023/03/08 14:59:17;;;;;;;4.97;1.58;;;;;;;11.20;100.00;98018.22;20799619;28;20072;-77
2023/03/08 15:09:28;;;;;;;5.72;2.58;;;;;;;11.63;100.00;97993.03;20781757;28;20046;-78
2023/03/08 15:19:30;;;;;;;1.50;0.70;;;;;;;11.94;100.00;97996.50;20787515;28;20144;-78
2023/03/08 15:29:38;;;;;;;2.70;0.80;;;;;;;11.90;100.00;97998.47;20798918;28;20080;-78
2023/03/08 15:39:40;;;;;;;2.38;1.20;;;;;;;11.76;100.00;97973.03;20807078;28;20046;-79
2023/03/08 15:49:41;;;;;;;3.05;1.00;;;;;;;11.64;100.00;97962.41;20821919;28;20452;-80
2023/03/08 15:59:43;;;;;;;4.03;1.10;;;;;;;11.54;100.00;97962.94;20826834;28;20080;-79
2023/03/08 16:09:44;;;;;;;2.20;0.85;;;;;;;11.56;100.00;97961.09;20824216;23;20041;-71
2023/03/08 16:19:45;;;;;;;2.20;0.90;;;;;;;11.55;100.00;97950.72;20801340;28;20054;-71
2023/03/08 16:29:47;;;;;;;2.92;0.75;;;;;;;11.62;100.00;97943.31;20793951;28;20084;-71
2023/03/08 16:39:48;;;;;;;3.03;1.10;;;;;;;11.48;100.00;97938.91;20784552;28;20077;-71
2023/03/08 16:49:49;;;;;;;5.38;2.50;;;;;;;11.43;100.00;97933.94;20785877;28;20084;-71
2023/03/08 16:59:51;;;;;;;3.63;1.27;;;;;;;11.42;100.00;97921.75;20786884;28;20148;-71
2023/03/08 17:09:52;;;;;;;4.45;1.38;;;;;;;11.60;100.00;97905.91;20798692;28;20097;-72
2023/03/08 17:19:53;;;;;;;3.85;1.50;;;;;;;11.57;100.00;97905.13;20780307;28;20506;-72
2023/03/08 17:29:57;;;;;;;3.75;0.98;;;;;;;11.70;100.00;97912.28;20783070;28;20688;-72
2023/03/08 17:39:58;;;;;;;1.70;0.80;;;;;;;11.63;100.00;97914.41;20776036;28;20061;-74
2023/03/08 17:49:59;;;;;;;2.83;1.20;;;;;;;11.64;100.00;97903.00;20782990;28;20525;-72
2023/03/08 18:00:00;;;;;;;2.40;0.88;;;;;;;11.72;100.00;97939.22;20787294;28;20163;-72
2023/03/08 18:10:02;;;;;;;2.72;1.00;;;;;;;11.28;100.00;97946.16;20769423;28;20100;-75
2023/03/08 18:20:04;;;;;;;2.03;1.10;;;;;;;11.02;100.00;97939.78;20772632;28;20108;-74
2023/03/08 18:30:05;;;;;;;5.82;3.60;;;;;;;10.72;100.00;97934.50;20769112;28;20053;-74
2023/03/08 18:40:10;;;;;;;3.10;1.30;;;;;;;10.78;100.00;97928.94;20776798;28;20099;-76
2023/03/08 18:50:11;;;;;;;;;;;;;;;10.81;100.00;97916.59;20796224;28;20475;-75
2023/03/08 19:00:14;;;;;;;2.08;1.10;;;;;;;10.70;100.00;97917.19;20795740;28;20440;-74
2023/03/08 19:10:15;;;;;;;2.50;1.00;;;;;;;10.42;100.00;97918.72;20789650;28;20061;-74
2023/03/08 19:20:16;;;;;;;4.43;1.45;;;;;;;10.22;100.00;97956.38;20781356;28;20053;-72
2023/03/08 19:30:18;;;;;;;7.13;1.65;;;;;;;9.97;100.00;97990.81;20791427;28;20482;-72
2023/03/08 19:40:19;;;;;;;6.00;1.70;;;;;;;9.93;100.00;98017.19;20801562;28;20057;-74
2023/03/08 19:50:20;;;;;;;5.40;1.40;;;;;;;10.00;100.00;98022.00;20777769;28;20535;-76
2023/03/08 20:00:22;;;;;;;2.42;1.27;;;;;;;9.95;100.00;98012.72;20783893;28;20440;-77
2023/03/08 20:10:23;;;;;;;5.45;1.70;;;;;;;9.93;100.00;98004.13;20788319;28;20539;-77
2023/03/08 20:20:24;;;;;;;4.40;1.80;;;;;;;9.82;100.00;98007.31;20776640;28;20080;-76
2023/03/08 20:30:26;;;;;;;7.15;2.10;;;;;;;9.85;100.00;98009.75;20793039;28;20057;-77
2023/03/08 20:40:28;;;;;;;3.13;1.33;;;;;;;9.99;100.00;98009.03;20800746;28;20924;-77
2023/03/08 20:50:30;;;;;;;5.38;1.83;;;;;;;9.86;100.00;97982.66;20778750;28;20066;-76
2023/03/08 21:00:31;;;;;;;6.10;2.53;;;;;;;9.87;100.00;98014.88;20778918;28;20107;-76
2023/03/08 21:10:32;;;;;;;6.82;2.17;;;;;;;9.92;100.00;98018.97;20780356;28;20444;-74
2023/03/08 21:20:33;;;;;;;6.43;2.58;;;;;;;9.97;100.00;97997.81;20785332;28;20057;-77
2023/03/08 21:30:35;;;;;;;5.65;2.13;;;;;;;9.97;100.00;97975.13;20802108;28;20103;-73
2023/03/08 21:40:36;;;;;;;2.08;0.80;;;;;;;9.98;100.00;97961.13;20784604;28;20050;-74
2023/03/08 21:50:38;;;;;;;4.25;1.20;;;;;;;9.95;100.00;97960.44;20777358;28;20686;-74
2023/03/08 22:00:39;;;;;;;6.97;2.22;;;;;;;9.91;100.00;97956.31;20775981;28;20064;-76
2023/03/08 22:10:41;;;;;;;5.18;1.90;;;;;;;9.67;100.00;97947.97;20777865;28;20057;-74
2023/03/08 22:20:42;;;;;;;6.32;2.38;;;;;;;9.63;100.00;97964.72;20795883;28;20053;-75
2023/03/08 22:30:44;;;;;;;5.72;2.05;;;;;;;9.74;100.00;97933.66;20787480;28;20041;-75
2023/03/08 22:40:45;;;;;;;6.00;2.08;;;;;;;9.85;100.00;97896.50;20773534;28;20049;-75
2023/03/08 22:50:46;;;;;;;6.53;3.28;;;;;;;9.90;100.00;97877.03;20773536;28;20111;-75
2023/03/08 23:00:47;;;;;;;7.95;3.28;;;;;;;9.86;100.00;97874.69;20774633;28;20464;-70
2023/03/08 23:10:49;;;;;;;10.07;3.25;;;;;;;9.86;100.00;97854.59;20779931;28;20698;-70
2023/03/08 23:20:50;;;;;;;8.68;3.15;;;;;;;9.83;100.00;97828.66;20790295;28;20140;-70
2023/03/08 23:30:51;;;;;;;10.45;3.42;;;;;;;9.86;100.00;97852.00;20773868;28;20461;-70
2023/03/08 23:40:53;;;;;;;6.95;2.95;;;;;;;9.94;100.00;97869.91;20777518;28;20450;-70
2023/03/08 23:50:54;;;;;;;9.95;3.13;;;;;;;10.05;100.00;97947.75;20788391;28;20461;-69
